Time;durP1;ratioP1;P1;durP2;ratioP2;P2;SDS_P1;SDS_P2;PMS_P1;PMS_P2;Temp;Humidity;BMP_temperature;BMP_pressure;BME280_temperature;BME280_humidity;BME280_pressure;Samples;Min_cycle;Max_cycle;Signal;HPM_P1;HPM_P2
2022/03/29 00:00:36;;;;;;;29.97;18.57;;;8.00;99.90;;;;;;5055951;28;20174;-62
2022/03/29 00:03:02;;;;;;;30.57;18.13;;;8.00;99.90;;;;;;5056379;28;20179;-62
2022/03/29 00:05:28;;;;;;;32.37;17.90;;;7.90;99.90;;;;;;5055784;28;20186;-62
2022/03/29 00:07:54;;;;;;;31.80;18.53;;;7.80;99.90;;;;;;5056193;28;20171;-62
2022/03/29 00:10:20;;;;;;;31.07;17.17;;;7.80;99.90;;;;;;5055562;28;20207;-62
2022/03/29 00:12:45;;;;;;;34.13;18.17;;;7.80;99.90;;;;;;5056160;28;20206;-62
2022/03/29 00:15:11;;;;;;;33.17;17.27;;;7.90;99.90;;;;;;5055903;28;20183;-62
2022/03/29 00:17:37;;;;;;;29.73;16.23;;;7.90;99.90;;;;;;5055685;28;20559;-62
2022/03/29 00:20:03;;;;;;;29.67;16.97;;;7.90;99.90;;;;;;5055922;28;20254;-62
2022/03/29 00:22:29;;;;;;;25.63;17.00;;;7.90;99.90;;;;;;5055519;28;20193;-62
2022/03/29 00:24:55;;;;;;;27.97;16.13;;;7.90;99.90;;;;;;5055448;28;20174;-62
2022/03/29 00:27:21;;;;;;;32.80;17.50;;;7.80;99.90;;;;;;5064145;28;20214;-62
2022/03/29 00:29:48;;;;;;;23.37;15.13;;;7.80;99.90;;;;;;5055810;28;20232;-62
2022/03/29 00:32:13;;;;;;;28.73;15.73;;;7.70;99.90;;;;;;5055621;28;20202;-62
2022/03/29 00:34:40;;;;;;;29.43;16.17;;;7.60;99.90;;;;;;5055392;28;20179;-62
2022/03/29 00:37:06;;;;;;;29.00;17.07;;;7.50;99.90;;;;;;5053968;28;20256;-61
2022/03/29 00:39:33;;;;;;;30.13;17.63;;;7.50;99.90;;;;;;5055408;28;20174;-61
2022/03/29 00:42:00;;;;;;;25.33;15.90;;;7.40;99.90;;;;;;5055087;28;20166;-61
2022/03/29 00:44:31;;;;;;;22.40;15.40;;;7.40;99.90;;;;;;5055172;28;20635;-64
2022/03/29 00:46:58;;;;;;;31.37;16.87;;;7.40;99.90;;;;;;5055109;28;20190;-61
2022/03/29 00:49:24;;;;;;;33.87;17.43;;;7.30;99.90;;;;;;5055092;28;20171;-61
2022/03/29 00:51:50;;;;;;;25.63;16.17;;;7.20;99.90;;;;;;5055545;28;20171;-60
2022/03/29 00:54:16;;;;;;;32.47;17.87;;;7.10;99.90;;;;;;5055519;28;20181;-61
2022/03/29 00:56:42;;;;;;;26.27;16.10;;;7.00;99.90;;;;;;5063553;28;20292;-61
2022/03/29 00:59:08;;;;;;;26.37;16.87;;;7.00;99.90;;;;;;5054503;28;20257;-61
2022/03/29 01:01:33;;;;;;;28.70;16.60;;;7.10;99.90;;;;;;5054917;28;20639;-61
2022/03/29 01:04:00;;;;;;;26.73;16.73;;;7.10;99.90;;;;;;5054956;28;20725;-61
2022/03/29 01:06:26;;;;;;;26.23;15.70;;;7.10;99.90;;;;;;5054907;28;20281;-60
2022/03/29 01:08:51;;;;;;;29.40;15.90;;;7.20;99.90;;;;;;5055143;28;20224;-61
2022/03/29 01:11:17;;;;;;;29.20;16.70;;;7.20;99.90;;;;;;5054413;28;20190;-62
2022/03/29 01:13:43;;;;;;;29.00;16.10;;;7.10;99.90;;;;;;5054597;28;20206;-62
2022/03/29 01:18:55;;;;;;;24.50;15.70;;;7.20;99.90;;;;;;5054876;28;20169;-63
2022/03/29 01:21:25;;;;;;;28.17;16.23;;;7.10;99.90;;;;;;5054431;28;20185;-63
2022/03/29 01:23:51;;;;;;;29.30;17.13;;;7.00;99.90;;;;;;5054468;28;20171;-61
2022/03/29 01:26:19;;;;;;;28.27;16.60;;;7.00;99.90;;;;;;5059826;28;20202;-61
2022/03/29 01:28:45;;;;;;;27.63;17.90;;;7.00;99.90;;;;;;5056959;28;20269;-61
2022/03/29 01:31:12;;;;;;;28.90;17.10;;;7.00;99.90;;;;;;5054540;28;20183;-61
2022/03/29 01:33:40;;;;;;;29.03;16.60;;;6.90;99.90;;;;;;5054326;28;20194;-61
2022/03/29 01:36:06;;;;;;;33.80;17.10;;;6.80;99.90;;;;;;5054220;28;20194;-60
2022/03/29 01:38:32;;;;;;;29.80;16.47;;;6.90;99.90;;;;;;5054152;28;20210;-61
2022/03/29 01:41:05;;;;;;;26.73;16.37;;;6.90;99.90;;;;;;5052673;28;20323;-61
2022/03/29 01:43:32;;;;;;;30.93;17.90;;;6.90;99.90;;;;;;5054411;28;20545;-60
2022/03/29 01:45:58;;;;;;;31.77;17.33;;;6.90;99.90;;;;;;5053981;28;20194;-60
2022/03/29 01:48:27;;;;;;;31.17;16.97;;;6.90;99.90;;;;;;5053993;28;20206;-61
2022/03/29 01:50:53;;;;;;;32.57;18.93;;;7.00;99.90;;;;;;5054329;28;20182;-60
2022/03/29 01:53:24;;;;;;;38.83;19.40;;;7.00;99.90;;;;;;5053820;28;20198;-61
2022/03/29 01:55:55;;;;;;;29.17;18.07;;;7.10;99.90;;;;;;5055587;28;20202;-60
2022/03/29 01:58:21;;;;;;;29.77;17.87;;;7.10;99.90;;;;;;5059849;28;20521;-60
2022/03/29 02:00:47;;;;;;;30.07;18.77;;;7.10;99.90;;;;;;5053768;28;20650;-61
2022/03/29 02:03:13;;;;;;;29.57;17.50;;;7.20;99.90;;;;;;5053806;28;20175;-60
2022/03/29 02:05:38;;;;;;;35.63;18.80;;;7.20;99.90;;;;;;5052492;28;20182;-61
2022/03/29 02:08:04;;;;;;;28.47;17.30;;;7.20;99.90;;;;;;5053905;28;20182;-60
2022/03/29 02:10:30;;;;;;;30.33;19.47;;;7.10;99.90;;;;;;5052590;28;20194;-61
2022/03/29 02:12:57;;;;;;;29.80;16.87;;;7.10;99.90;;;;;;5053569;28;20201;-60
2022/03/29 02:15:22;;;;;;;32.23;17.67;;;7.10;99.90;;;;;;5053569;28;20179;-60
2022/03/29 02:17:48;;;;;;;29.83;16.93;;;7.10;99.90;;;;;;5054137;28;20175;-61
2022/03/29 02:20:14;;;;;;;31.87;18.70;;;7.10;99.90;;;;;;5053528;28;20178;-60
2022/03/29 02:22:41;;;;;;;28.77;17.90;;;7.10;99.90;;;;;;5053519;28;20646;-61
2022/03/29 02:25:07;;;;;;;29.07;17.67;;;7.10;99.90;;;;;;5053482;28;20646;-62
2022/03/29 02:27:33;;;;;;;31.10;18.87;;;7.10;99.90;;;;;;5062022;28;20213;-63
2022/03/29 02:29:58;;;;;;;31.30;18.03;;;7.10;99.90;;;;;;5053713;28;20187;-61
2022/03/29 02:32:24;;;;;;;29.47;16.77;;;7.00;99.90;;;;;;5051945;28;20202;-61
2022/03/29 02:34:50;;;;;;;29.27;17.43;;;7.00;99.90;;;;;;5053609;28;20258;-61
2022/03/29 02:37:15;;;;;;;26.80;17.20;;;7.00;99.90;;;;;;5053441;28;20706;-61
2022/03/29 02:39:42;;;;;;;29.37;16.17;;;6.90;99.90;;;;;;5053559;28;20663;-61
2022/03/29 02:42:08;;;;;;;23.80;15.43;;;6.80;99.90;;;;;;5052970;28;20179;-61
2022/03/29 02:44:34;;;;;;;30.27;17.60;;;6.80;99.90;;;;;;5053251;28;20190;-62
2022/03/29 02:46:59;;;;;;;30.13;17.77;;;6.70;99.90;;;;;;5053162;28;20202;-61
2022/03/29 02:49:26;;;;;;;28.53;17.70;;;6.60;99.90;;;;;;5053178;28;20239;-61
2022/03/29 02:51:52;;;;;;;33.47;17.83;;;6.50;99.90;;;;;;5053089;28;20257;-62
2022/03/29 02:54:19;;;;;;;32.83;18.43;;;6.50;99.90;;;;;;5051855;28;20581;-61
2022/03/29 02:56:45;;;;;;;30.57;18.33;;;6.40;99.90;;;;;;5061482;28;20561;-61
2022/03/29 02:59:11;;;;;;;33.03;17.97;;;6.40;99.90;;;;;;5053638;28;20307;-62
2022/03/29 03:01:37;;;;;;;31.70;18.20;;;6.40;99.90;;;;;;5053405;28;20162;-61
2022/03/29 03:04:03;;;;;;;33.10;19.93;;;6.30;99.90;;;;;;5053110;28;20201;-62
2022/03/29 03:06:29;;;;;;;30.97;18.53;;;6.30;99.90;;;;;;5051862;28;20293;-61
2022/03/29 03:08:54;;;;;;;32.57;18.10;;;6.30;99.90;;;;;;5053298;28;20236;-61
2022/03/29 03:11:20;;;;;;;35.93;18.57;;;6.30;99.90;;;;;;5052558;28;20190;-61
2022/03/29 03:13:46;;;;;;;31.00;18.30;;;6.30;99.90;;;;;;5053049;28;20209;-61
2022/03/29 03:16:12;;;;;;;29.37;17.50;;;6.40;99.90;;;;;;5052823;28;20186;-61
2022/03/29 03:18:38;;;;;;;33.07;18.77;;;6.40;99.90;;;;;;5053592;28;20655;-61
2022/03/29 03:21:04;;;;;;;28.80;17.83;;;6.40;99.90;;;;;;5053610;28;20171;-61
2022/03/29 03:23:30;;;;;;;30.70;18.63;;;6.50;99.90;;;;;;5056850;28;20261;-61
2022/03/29 03:25:55;;;;;;;31.77;17.80;;;6.50;99.90;;;;;;5059292;28;20258;-61
2022/03/29 03:28:21;;;;;;;30.67;18.90;;;6.50;99.90;;;;;;5062486;28;20216;-61
2022/03/29 03:30:48;;;;;;;32.00;18.13;;;6.50;99.90;;;;;;5057035;28;20154;-61
2022/03/29 03:33:13;;;;;;;27.47;17.40;;;6.50;99.90;;;;;;5056905;28;20277;-61
2022/03/29 03:35:39;;;;;;;35.20;18.57;;;6.50;99.90;;;;;;5056976;28;20252;-61
2022/03/29 03:38:07;;;;;;;28.67;16.20;;;6.50;99.90;;;;;;5056437;28;20300;-61
2022/03/29 03:40:33;;;;;;;28.33;16.50;;;6.50;99.90;;;;;;5055022;28;20206;-61
2022/03/29 03:43:00;;;;;;;31.53;18.33;;;6.50;99.90;;;;;;5056595;28;20236;-61
2022/03/29 03:45:26;;;;;;;31.27;17.70;;;6.50;99.90;;;;;;5056579;28;20659;-61
2022/03/29 03:47:51;;;;;;;33.90;20.27;;;6.60;99.90;;;;;;5056452;28;20179;-62
2022/03/29 03:50:17;;;;;;;29.43;19.40;;;6.60;99.90;;;;;;5056492;28;20221;-61
2022/03/29 03:52:43;;;;;;;32.03;18.23;;;6.50;99.90;;;;;;5056138;28;20248;-61
2022/03/29 03:55:09;;;;;;;29.57;18.13;;;6.50;99.90;;;;;;5056732;28;20167;-62
2022/03/29 03:57:35;;;;;;;30.60;20.33;;;6.40;99.90;;;;;;5064599;28;20206;-61
2022/03/29 04:00:01;;;;;;;33.13;20.40;;;6.40;99.90;;;;;;5056079;28;20639;-61
2022/03/29 04:02:27;;;;;;;33.40;19.90;;;6.40;99.90;;;;;;5056144;28;20174;-61
2022/03/29 04:04:53;;;;;;;32.80;21.33;;;6.40;99.90;;;;;;5056073;28;20284;-61
2022/03/29 04:07:19;;;;;;;35.63;20.63;;;6.40;99.90;;;;;;5056051;28;20248;-61
2022/03/29 04:09:44;;;;;;;35.33;20.00;;;6.40;99.90;;;;;;5055746;28;20273;-61
2022/03/29 04:12:11;;;;;;;38.40;23.20;;;6.40;99.90;;;;;;5055693;28;20186;-61
2022/03/29 04:14:36;;;;;;;44.10;22.50;;;6.40;99.90;;;;;;5055864;28;20216;-61
2022/03/29 04:17:04;;;;;;;43.83;24.70;;;6.40;99.90;;;;;;5055880;28;20187;-61
2022/03/29 04:19:30;;;;;;;41.47;25.43;;;6.50;99.90;;;;;;5055937;28;20197;-61
2022/03/29 04:21:55;;;;;;;43.80;26.97;;;6.50;99.90;;;;;;5055741;28;20544;-61
2022/03/29 04:24:21;;;;;;;47.67;27.43;;;6.50;99.90;;;;;;5055680;28;20178;-61
2022/03/29 04:26:51;;;;;;;50.83;27.77;;;6.50;99.90;;;;;;5064034;28;20208;-61
2022/03/29 04:29:17;;;;;;;49.10;28.10;;;6.40;99.90;;;;;;5055812;28;20170;-61
2022/03/29 04:31:43;;;;;;;46.73;27.53;;;6.40;99.90;;;;;;5056053;28;20171;-63
2022/03/29 04:34:08;;;;;;;49.47;28.20;;;6.40;99.90;;;;;;5055669;28;20277;-63
2022/03/29 04:36:34;;;;;;;55.27;29.97;;;6.40;99.90;;;;;;5056120;28;20528;-64
2022/03/29 04:39:00;;;;;;;50.40;29.57;;;6.40;99.90;;;;;;5055786;28;20175;-62
2022/03/29 04:41:26;;;;;;;51.97;30.93;;;6.40;99.90;;;;;;5055027;28;20209;-64
2022/03/29 04:43:51;;;;;;;53.40;29.67;;;6.40;99.90;;;;;;5055458;28;20187;-62
2022/03/29 04:46:17;;;;;;;49.60;30.67;;;6.40;99.90;;;;;;5055348;28;20620;-63
2022/03/29 04:48:44;;;;;;;51.43;29.43;;;6.40;99.90;;;;;;5055057;28;20178;-61
2022/03/29 04:51:10;;;;;;;48.80;30.70;;;6.40;99.90;;;;;;5055048;28;20174;-63
2022/03/29 04:53:36;;;;;;;51.77;31.27;;;6.40;99.90;;;;;;5055219;28;20612;-61
2022/03/29 04:56:02;;;;;;;53.77;30.87;;;6.40;99.90;;;;;;5058571;28;20205;-63
2022/03/29 04:58:27;;;;;;;50.20;30.23;;;6.30;99.90;;;;;;5059834;28;20232;-62
2022/03/29 05:00:53;;;;;;;50.33;29.60;;;6.30;99.90;;;;;;5055177;28;20175;-62
2022/03/29 05:03:19;;;;;;;49.83;29.13;;;6.30;99.90;;;;;;5055356;28;20198;-61
2022/03/29 05:05:45;;;;;;;53.87;32.70;;;6.30;99.90;;;;;;5054988;28;20195;-61
2022/03/29 05:08:11;;;;;;;52.10;31.63;;;6.20;99.90;;;;;;5055221;28;20177;-64
2022/03/29 05:10:36;;;;;;;59.87;30.40;;;6.20;99.90;;;;;;5054242;28;20197;-61
2022/03/29 05:13:02;;;;;;;51.90;30.83;;;6.10;99.90;;;;;;5053250;28;20190;-62
2022/03/29 05:15:28;;;;;;;49.93;29.70;;;6.10;99.90;;;;;;5054571;28;20611;-61
2022/03/29 05:17:54;;;;;;;49.33;29.40;;;6.10;99.90;;;;;;5054758;28;20630;-61
2022/03/29 05:20:19;;;;;;;49.40;30.30;;;6.10;99.90;;;;;;5054459;28;20236;-61
2022/03/29 05:22:51;;;;;;;51.13;30.20;;;6.10;99.90;;;;;;5054387;28;20206;-61
2022/03/29 05:25:18;;;;;;;57.30;30.60;;;6.10;99.90;;;;;;5054715;28;20174;-61
2022/03/29 05:27:45;;;;;;;59.17;32.07;;;6.10;99.90;;;;;;5062704;28;20224;-61
2022/03/29 05:30:12;;;;;;;55.20;30.27;;;6.00;99.90;;;;;;5054610;28;20195;-61
2022/03/29 05:32:39;;;;;;;55.43;31.10;;;6.00;99.90;;;;;;5052893;28;20690;-61
2022/03/29 05:35:07;;;;;;;58.40;33.00;;;6.00;99.90;;;;;;5054228;28;20181;-63
2022/03/29 05:37:34;;;;;;;59.03;31.77;;;6.00;99.90;;;;;;5054083;28;20187;-61
2022/03/29 05:40:00;;;;;;;64.50;34.80;;;6.00;99.90;;;;;;5054049;28;20166;-61
2022/03/29 05:42:26;;;;;;;65.50;35.17;;;6.10;99.90;;;;;;5053843;28;20224;-61
2022/03/29 05:44:51;;;;;;;60.00;34.77;;;6.10;99.90;;;;;;5053904;28;20182;-62
2022/03/29 05:50:01;;;;;;;66.80;36.67;;;6.20;99.90;;;;;;5054002;28;20546;-61
2022/03/29 05:52:28;;;;;;;68.57;38.13;;;6.20;99.90;;;;;;5053878;28;20673;-61
2022/03/29 05:54:54;;;;;;;64.73;36.07;;;6.30;99.90;;;;;;5053849;28;20182;-61
2022/03/29 05:57:20;;;;;;;72.67;38.00;;;6.30;99.90;;;;;;5062257;28;20571;-62
2022/03/29 05:59:46;;;;;;;71.00;38.13;;;6.40;99.90;;;;;;5053860;28;20269;-64
2022/03/29 06:02:12;;;;;;;69.67;36.53;;;6.40;99.90;;;;;;5054258;28;20684;-65
2022/03/29 06:04:39;;;;;;;71.70;37.87;;;6.40;99.90;;;;;;5053727;28;20170;-62
2022/03/29 06:07:06;;;;;;;68.53;37.20;;;6.40;99.90;;;;;;5053669;28;20651;-61
2022/03/29 06:09:35;;;;;;;75.17;38.30;;;6.40;99.90;;;;;;5053737;28;20210;-61
2022/03/29 06:12:01;;;;;;;69.20;37.67;;;6.50;99.90;;;;;;5053360;28;20171;-61
2022/03/29 06:14:28;;;;;;;77.73;40.17;;;6.50;99.90;;;;;;5053822;28;20206;-67
2022/03/29 06:16:55;;;;;;;74.33;39.47;;;6.50;99.90;;;;;;5053727;28;20194;-61
2022/03/29 06:19:21;;;;;;;74.63;38.23;;;6.60;99.90;;;;;;5053967;28;20198;-61
2022/03/29 06:21:47;;;;;;;73.70;39.03;;;6.60;99.90;;;;;;5054208;28;20209;-61
2022/03/29 06:24:13;;;;;;;69.07;37.97;;;6.70;99.90;;;;;;5053716;28;20190;-61
2022/03/29 06:26:39;;;;;;;71.80;38.37;;;6.70;99.90;;;;;;5061888;28;20673;-62
2022/03/29 06:29:09;;;;;;;67.80;38.43;;;6.80;99.90;;;;;;5053817;28;20188;-61
2022/03/29 06:31:35;;;;;;;74.10;37.93;;;6.80;99.90;;;;;;5053568;28;20176;-62
2022/03/29 06:34:01;;;;;;;72.87;38.57;;;6.80;99.90;;;;;;5053723;28;20288;-61
2022/03/29 06:36:27;;;;;;;75.07;40.47;;;6.80;99.90;;;;;;5053555;28;20599;-62
2022/03/29 06:38:53;;;;;;;71.23;38.10;;;6.80;99.90;;;;;;5053877;28;20228;-61
2022/03/29 06:41:19;;;;;;;74.43;39.77;;;6.80;99.90;;;;;;5054081;28;20208;-62
2022/03/29 06:43:45;;;;;;;74.47;40.77;;;6.80;99.90;;;;;;5053729;28;20671;-61
2022/03/29 06:46:11;;;;;;;69.17;38.90;;;6.80;99.90;;;;;;5053673;28;20340;-62
2022/03/29 06:48:39;;;;;;;70.27;39.03;;;6.80;99.90;;;;;;5053521;28;20273;-61
2022/03/29 06:51:05;;;;;;;76.33;40.80;;;6.80;99.90;;;;;;5053889;28;20175;-62
2022/03/29 06:53:31;;;;;;;73.23;40.57;;;6.90;99.90;;;;;;5054330;28;20553;-62
2022/03/29 06:55:57;;;;;;;74.80;39.77;;;6.90;99.90;;;;;;5056896;28;20193;-62
2022/03/29 06:58:22;;;;;;;68.10;38.90;;;6.90;99.90;;;;;;5062297;28;20209;-61
2022/03/29 07:00:48;;;;;;;71.63;39.77;;;6.90;99.90;;;;;;5057400;28;20174;-62
2022/03/29 07:03:14;;;;;;;72.77;40.47;;;7.00;99.90;;;;;;5057410;28;20170;-62
2022/03/29 07:05:42;;;;;;;72.13;40.23;;;7.00;99.90;;;;;;5057391;28;20189;-62
2022/03/29 07:08:11;;;;;;;75.37;39.10;;;7.00;99.90;;;;;;5057251;28;20190;-61
2022/03/29 07:13:22;;;;;;;64.20;37.20;;;7.10;99.90;;;;;;5056887;28;20260;-62
2022/03/29 07:15:51;;;;;;;70.17;38.53;;;7.10;99.90;;;;;;5056892;28;20671;-61
2022/03/29 07:18:17;;;;;;;75.63;39.43;;;7.20;99.90;;;;;;5056881;28;20174;-61
2022/03/29 07:20:43;;;;;;;77.63;40.50;;;7.20;99.90;;;;;;5056865;28;20193;-62
2022/03/29 07:23:09;;;;;;;79.83;41.23;;;7.20;99.90;;;;;;5057219;28;20649;-63
2022/03/29 07:25:36;;;;;;;80.20;41.13;;;7.20;99.90;;;;;;5055927;28;20269;-61
2022/03/29 07:28:02;;;;;;;88.87;42.07;;;7.20;99.90;;;;;;5064766;28;20197;-61
2022/03/29 07:30:29;;;;;;;75.60;40.07;;;7.30;99.90;;;;;;5056661;28;20189;-61
2022/03/29 07:32:59;;;;;;;74.30;38.37;;;7.30;99.90;;;;;;5056581;28;20194;-62
2022/03/29 07:35:28;;;;;;;73.03;40.33;;;7.30;99.90;;;;;;5056787;28;20170;-62
2022/03/29 07:37:55;;;;;;;71.13;39.47;;;7.30;99.90;;;;;;5056446;28;20244;-62
2022/03/29 07:40:23;;;;;;;70.10;40.50;;;7.40;99.90;;;;;;5056485;28;20717;-61
2022/03/29 07:42:49;;;;;;;72.97;41.37;;;7.40;99.90;;;;;;5056247;28;20178;-61
2022/03/29 07:45:16;;;;;;;66.77;36.53;;;7.40;99.90;;;;;;5056410;28;20179;-62
2022/03/29 07:47:44;;;;;;;67.97;38.33;;;7.50;99.90;;;;;;5056197;28;20222;-61
2022/03/29 07:50:11;;;;;;;65.10;38.47;;;7.50;99.90;;;;;;5056211;28;20181;-61
2022/03/29 07:52:39;;;;;;;69.53;37.73;;;7.60;99.90;;;;;;5056074;28;20198;-62
2022/03/29 07:55:07;;;;;;;68.27;37.73;;;7.60;99.90;;;;;;5056527;28;20197;-61
2022/03/29 07:57:34;;;;;;;75.97;38.23;;;7.60;99.90;;;;;;5065217;28;20570;-62
2022/03/29 08:00:31;;;;;;;66.87;37.00;;;7.70;99.90;;;;;;5054983;28;20178;-62
2022/03/29 08:02:47;;;;;;;72.37;38.53;;;7.60;99.90;;;;;;5055848;28;20186;-61
2022/03/29 08:05:12;;;;;;;64.70;35.57;;;7.60;99.90;;;;;;5055948;28;20224;-61
2022/03/29 08:07:40;;;;;;;69.80;36.13;;;7.50;99.90;;;;;;5055541;28;20194;-61
2022/03/29 08:10:07;;;;;;;70.03;37.23;;;7.60;99.90;;;;;;5055341;28;20194;-62
2022/03/29 08:12:34;;;;;;;74.90;39.27;;;7.60;99.90;;;;;;5055467;28;20199;-61
2022/03/29 08:15:00;;;;;;;69.83;36.93;;;7.70;99.90;;;;;;5054512;28;20329;-62
2022/03/29 08:17:26;;;;;;;70.20;37.77;;;7.70;99.90;;;;;;5055653;28;20282;-62
2022/03/29 08:19:52;;;;;;;67.23;37.73;;;7.70;99.90;;;;;;5055670;28;20655;-61
2022/03/29 08:22:18;;;;;;;76.47;39.40;;;7.70;99.90;;;;;;5056166;28;20248;-61
2022/03/29 08:24:44;;;;;;;70.07;38.57;;;7.70;99.90;;;;;;5055475;28;20178;-61
2022/03/29 08:27:10;;;;;;;66.40;36.60;;;7.70;99.90;;;;;;5063861;28;20206;-60
2022/03/29 08:29:37;;;;;;;67.00;37.20;;;7.70;99.90;;;;;;5055410;28;20598;-61
2022/03/29 08:32:04;;;;;;;70.57;36.73;;;7.80;99.90;;;;;;5055359;28;20186;-61
2022/03/29 08:34:30;;;;;;;65.63;38.03;;;7.90;99.90;;;;;;5055668;28;20182;-61
2022/03/29 08:36:56;;;;;;;69.37;37.43;;;7.90;99.90;;;;;;5055289;28;20310;-61
2022/03/29 08:39:22;;;;;;;68.23;38.40;;;7.90;99.90;;;;;;5055327;28;20179;-61
2022/03/29 08:42:07;;;;;;;66.47;36.90;;;8.00;99.90;;;;;;5055379;28;20174;-61
2022/03/29 08:44:33;;;;;;;72.90;38.07;;;8.00;99.90;;;;;;5055495;28;20608;-62
2022/03/29 08:47:00;;;;;;;63.73;35.30;;;8.10;99.90;;;;;;5055109;28;20651;-61
2022/03/29 08:49:27;;;;;;;71.23;37.57;;;8.20;99.90;;;;;;5055071;28;20179;-62
2022/03/29 08:51:53;;;;;;;63.87;36.53;;;8.20;99.90;;;;;;5054960;28;20254;-61
2022/03/29 08:54:20;;;;;;;65.07;37.57;;;8.30;99.90;;;;;;5055468;28;20538;-62
2022/03/29 08:56:46;;;;;;;67.47;36.23;;;8.40;99.90;;;;;;5063266;28;20201;-61
2022/03/29 08:59:12;;;;;;;73.07;38.93;;;8.40;99.90;;;;;;5054836;28;20183;-61
2022/03/29 09:01:38;;;;;;;65.03;36.07;;;8.40;99.90;;;;;;5054852;28;20200;-61
2022/03/29 09:04:09;;;;;;;71.50;37.03;;;8.50;99.90;;;;;;5054854;28;20271;-61
2022/03/29 09:06:50;;;;;;;62.20;35.83;;;8.50;99.90;;;;;;5054820;28;20671;-61
2022/03/29 09:09:30;;;;;;;63.77;34.40;;;8.60;99.90;;;;;;5054498;28;20537;-62
2022/03/29 09:11:57;;;;;;;68.90;39.30;;;8.60;99.90;;;;;;5054681;28;20177;-62
2022/03/29 09:14:25;;;;;;;67.13;34.93;;;8.60;99.90;;;;;;5054488;28;20693;-61
2022/03/29 09:16:54;;;;;;;62.07;35.43;;;8.70;99.90;;;;;;5054524;28;20191;-62
2022/03/29 09:19:25;;;;;;;62.27;33.93;;;8.80;99.90;;;;;;5054311;28;20178;-61
2022/03/29 09:21:54;;;;;;;63.00;35.90;;;8.80;99.90;;;;;;5054494;28;20169;-61
2022/03/29 09:24:20;;;;;;;65.20;36.97;;;8.90;99.90;;;;;;5054495;28;20255;-62
2022/03/29 09:26:49;;;;;;;64.37;35.80;;;8.90;99.90;;;;;;5062667;28;20285;-61
2022/03/29 09:29:20;;;;;;;66.50;37.23;;;9.00;99.90;;;;;;5054342;28;20549;-62
2022/03/29 09:32:06;;;;;;;57.97;33.37;;;8.90;99.90;;;;;;5054276;28;20178;-61
2022/03/29 09:34:33;;;;;;;58.67;33.90;;;8.90;99.90;;;;;;5052591;28;20198;-62
2022/03/29 09:37:01;;;;;;;62.97;35.77;;;9.00;99.90;;;;;;5054092;28;20243;-62
2022/03/29 09:39:44;;;;;;;59.70;34.57;;;9.00;99.90;;;;;;5054173;28;20166;-61
2022/03/29 09:42:15;;;;;;;63.67;35.27;;;9.00;99.90;;;;;;5054003;28;20178;-60
2022/03/29 09:44:45;;;;;;;54.27;32.17;;;9.00;99.90;;;;;;5054236;28;20163;-61
2022/03/29 09:47:14;;;;;;;60.17;34.87;;;9.10;99.90;;;;;;5052647;28;20586;-62
2022/03/29 09:50:06;;;;;;;55.37;33.13;;;9.20;99.90;;;;;;5054449;28;20174;-61
2022/03/29 09:52:39;;;;;;;54.70;32.20;;;9.20;99.90;;;;;;5054153;28;20698;-62
2022/03/29 09:55:23;;;;;;;56.27;34.13;;;9.30;99.90;;;;;;5054224;28;20154;-63
2022/03/29 09:57:51;;;;;;;53.33;32.60;;;9.30;99.90;;;;;;5062206;28;20174;-62
2022/03/29 10:00:38;;;;;;;61.77;34.83;;;9.20;99.90;;;;;;5053808;28;20185;-62
2022/03/29 10:03:08;;;;;;;60.70;33.00;;;9.20;99.90;;;;;;5053755;28;20166;-63
2022/03/29 10:05:37;;;;;;;57.83;33.93;;;9.30;99.90;;;;;;5053608;28;20187;-63
2022/03/29 10:10:49;;;;;;;60.13;33.90;;;9.40;99.90;;;;;;5053958;28;20201;-62
2022/03/29 10:13:17;;;;;;;62.13;34.90;;;9.40;99.90;;;;;;5053392;28;20197;-62
2022/03/29 10:15:45;;;;;;;64.13;37.30;;;9.40;99.90;;;;;;5053523;28;20175;-62
2022/03/29 10:18:11;;;;;;;57.47;33.00;;;9.40;99.90;;;;;;5053905;28;20150;-62
2022/03/29 10:20:37;;;;;;;60.43;35.23;;;9.40;99.90;;;;;;5054364;28;20151;-63
2022/03/29 10:23:06;;;;;;;57.97;35.10;;;9.40;99.90;;;;;;5053647;28;20242;-63
2022/03/29 10:25:33;;;;;;;58.77;34.53;;;9.40;99.90;;;;;;5053711;28;20190;-63
2022/03/29 10:28:01;;;;;;;58.23;33.97;;;9.50;99.90;;;;;;5062873;28;20594;-63
2022/03/29 10:30:36;;;;;;;55.30;34.83;;;9.50;99.90;;;;;;5054081;28;20236;-62
2022/03/29 10:33:16;;;;;;;62.63;34.43;;;9.60;99.90;;;;;;5053565;28;20202;-63
2022/03/29 10:36:06;;;;;;;55.30;33.03;;;9.50;99.90;;;;;;5053867;28;20165;-63
2022/03/29 10:38:46;;;;;;;55.60;33.13;;;9.50;99.90;;;;;;5053303;28;20638;-62
2022/03/29 10:41:30;;;;;;;57.70;33.53;;;9.40;99.90;;;;;;5053266;28;20162;-62
2022/03/29 10:44:04;;;;;;;58.30;32.37;;;9.50;99.90;;;;;;5053541;28;20169;-63
2022/03/29 10:46:47;;;;;;;47.03;29.47;;;9.60;99.90;;;;;;5053365;28;20201;-63
2022/03/29 10:49:17;;;;;;;56.77;33.07;;;9.60;99.90;;;;;;5053320;28;20170;-63
2022/03/29 10:51:43;;;;;;;54.00;32.93;;;9.70;99.90;;;;;;5053310;28;20193;-62
2022/03/29 10:54:26;;;;;;;56.37;32.47;;;9.70;99.90;;;;;;5053125;28;20686;-63
2022/03/29 10:57:00;;;;;;;51.13;30.67;;;9.80;99.90;;;;;;5061873;28;20205;-63
2022/03/29 10:59:27;;;;;;;58.37;33.00;;;9.70;99.90;;;;;;5053395;28;20313;-62
2022/03/29 11:02:09;;;;;;;56.90;31.27;;;9.80;99.90;;;;;;5053123;28;20224;-61
2022/03/29 11:04:35;;;;;;;48.47;29.33;;;9.80;99.90;;;;;;5053513;28;20170;-62
2022/03/29 11:07:10;;;;;;;54.40;31.30;;;9.80;99.90;;;;;;5051662;28;20240;-61
2022/03/29 11:09:37;;;;;;;48.97;30.30;;;9.90;99.90;;;;;;5052770;28;20193;-61
2022/03/29 11:12:04;;;;;;;47.83;29.07;;;10.00;99.90;;;;;;5052742;28;20178;-62
2022/03/29 11:14:37;;;;;;;54.60;31.30;;;10.10;99.90;;;;;;5052836;28;20264;-62
2022/03/29 11:17:09;;;;;;;54.30;31.17;;;10.20;99.90;;;;;;5053087;28;20220;-62
2022/03/29 11:19:48;;;;;;;51.03;30.33;;;10.40;99.90;;;;;;5052904;28;20250;-62
2022/03/29 11:22:24;;;;;;;47.40;29.47;;;10.50;99.90;;;;;;5053165;28;20157;-61
2022/03/29 11:24:51;;;;;;;51.22;29.90;;;10.90;99.90;;;;;;5053105;28;20245;-62
2022/03/29 11:27:28;;;;;;;47.63;28.30;;;11.20;99.90;;;;;;5061164;28;20195;-62
2022/03/29 11:29:55;;;;;;;46.25;28.38;;;11.50;99.90;;;;;;5053290;28;20155;-63
2022/03/29 11:32:22;;;;;;;42.45;28.02;;;11.70;99.90;;;;;;5052750;28;20178;-62
2022/03/29 11:34:56;;;;;;;46.53;28.17;;;11.80;99.90;;;;;;5052793;28;20258;-61
2022/03/29 11:37:31;;;;;;;46.13;27.08;;;11.80;99.90;;;;;;5052716;28;20198;-62
2022/03/29 11:40:00;;;;;;;41.55;27.55;;;11.80;99.90;;;;;;5052980;28;20174;-61
2022/03/29 11:42:46;;;;;;;46.67;28.25;;;11.80;99.90;;;;;;5053273;28;20661;-63
2022/03/29 11:45:13;;;;;;;44.05;27.25;;;12.00;99.90;;;;;;5055977;28;20186;-61
2022/03/29 11:47:40;;;;;;;43.78;26.60;;;12.20;99.90;;;;;;5056092;28;20281;-62
2022/03/29 11:50:06;;;;;;;43.90;26.50;;;12.20;99.90;;;;;;5056631;28;20154;-61
2022/03/29 11:52:33;;;;;;;43.55;27.10;;;12.20;99.90;;;;;;5056737;28;20237;-62
2022/03/29 11:54:59;;;;;;;38.45;26.55;;;12.20;99.90;;;;;;5056267;28;20288;-63
2022/03/29 11:57:30;;;;;;;37.25;25.08;;;12.40;99.90;;;;;;5064518;28;20213;-62
2022/03/29 11:59:57;;;;;;;40.90;26.23;;;12.30;99.90;;;;;;5056057;28;20170;-62
2022/03/29 12:02:25;;;;;;;38.53;25.42;;;12.20;99.90;;;;;;5055991;28;20166;-64
2022/03/29 12:04:51;;;;;;;40.83;26.27;;;12.40;99.90;;;;;;5056281;28;20162;-63
2022/03/29 12:07:37;;;;;;;45.30;27.65;;;12.50;99.90;;;;;;5056726;28;20721;-62
2022/03/29 12:10:03;;;;;;;41.13;26.17;;;12.50;99.90;;;;;;5055784;28;20661;-62
2022/03/29 12:12:29;;;;;;;46.10;28.25;;;12.50;99.90;;;;;;5055686;28;20572;-63
2022/03/29 12:15:04;;;;;;;41.15;26.30;;;12.60;99.90;;;;;;5055734;28;20170;-62
2022/03/29 12:17:30;;;;;;;42.35;26.75;;;12.70;99.90;;;;;;5055640;28;20246;-62
2022/03/29 12:19:56;;;;;;;40.47;26.13;;;12.60;99.90;;;;;;5055659;28;20695;-62
2022/03/29 12:22:23;;;;;;;43.55;27.33;;;12.60;99.90;;;;;;5056111;28;20173;-62
2022/03/29 12:24:55;;;;;;;45.58;29.13;;;12.80;99.90;;;;;;5055649;28;20162;-62
2022/03/29 12:27:21;;;;;;;45.75;28.17;;;12.70;99.90;;;;;;5063968;28;20202;-62
2022/03/29 12:29:51;;;;;;;43.05;26.55;;;12.60;99.90;;;;;;5055472;28;20254;-62
2022/03/29 12:32:20;;;;;;;44.92;28.25;;;12.50;99.90;;;;;;5055331;28;20536;-63
2022/03/29 12:34:57;;;;;;;44.92;28.02;;;12.60;99.90;;;;;;5055547;28;20174;-62
2022/03/29 12:37:23;;;;;;;43.85;28.17;;;12.60;99.90;;;;;;5054097;28;20569;-62
2022/03/29 12:39:56;;;;;;;44.47;27.73;;;12.60;99.90;;;;;;5055445;28;20163;-62
2022/03/29 12:42:22;;;;;;;43.40;27.55;;;12.40;99.90;;;;;;5055174;28;20735;-61
2022/03/29 12:45:00;;;;;;;43.50;27.98;;;12.40;99.90;;;;;;5055268;28;20254;-61
2022/03/29 12:47:27;;;;;;;43.10;27.70;;;12.40;99.90;;;;;;5055073;28;20201;-62
2022/03/29 12:49:54;;;;;;;43.08;26.67;;;12.50;99.90;;;;;;5055162;28;20234;-62